createdAt,value
2018-03-07T00:01:00.781Z,7.20
2018-03-07T00:03:27.742Z,7.20
2018-03-07T00:05:54.719Z,7.10
2018-03-07T00:08:22.688Z,7.10
2018-03-07T00:10:49.726Z,7.10
2018-03-07T00:13:16.784Z,7.10
2018-03-07T00:15:43.835Z,7.10
2018-03-07T00:18:10.798Z,7.10
2018-03-07T00:20:37.775Z,7.10
2018-03-07T00:23:04.750Z,7.10
2018-03-07T00:25:31.719Z,7.10
2018-03-07T00:27:59.469Z,7.10
2018-03-07T00:30:26.438Z,7.10
2018-03-07T00:32:53.468Z,7.10
2018-03-07T00:35:20.526Z,7.10
2018-03-07T00:37:47.588Z,7.10
2018-03-07T00:40:14.647Z,7.10
2018-03-07T00:42:41.623Z,7.10
2018-03-07T00:45:08.597Z,7.10
2018-03-07T00:47:35.572Z,7.10
2018-03-07T00:50:03.303Z,7.00
2018-03-07T00:52:30.291Z,7.00
2018-03-07T00:54:57.314Z,7.00
2018-03-07T00:57:24.291Z,7.00
2018-03-07T00:59:51.326Z,6.90
2018-03-07T01:02:18.395Z,6.90
2018-03-07T01:04:45.455Z,6.90
2018-03-07T01:07:12.519Z,6.80
2018-03-07T01:09:39.491Z,6.80
2018-03-07T01:12:06.463Z,6.80
2018-03-07T01:14:33.491Z,6.80
2018-03-07T01:17:00.455Z,6.70
2018-03-07T01:19:27.435Z,6.70
2018-03-07T01:21:54.463Z,6.70
2018-03-07T01:24:21.438Z,6.60
2018-03-07T01:26:48.415Z,6.50
2018-03-07T01:29:15.391Z,6.50
2018-03-07T01:31:42.399Z,6.40
2018-03-07T01:34:09.379Z,6.40
2018-03-07T01:36:36.343Z,6.40
2018-03-07T01:39:03.319Z,6.30
2018-03-07T01:41:30.336Z,6.20
2018-03-07T01:43:57.308Z,6.20
2018-03-07T01:46:24.287Z,6.10
2018-03-07T01:48:51.251Z,6.00
2018-03-07T01:51:18.272Z,6.00
2018-03-07T01:53:45.239Z,5.90
2018-03-07T01:56:12.219Z,5.90
2018-03-07T01:58:40.863Z,5.80
2018-03-07T02:01:08.574Z,5.80
2018-03-07T02:03:35.615Z,5.80
2018-03-07T02:06:02.676Z,5.80
2018-03-07T02:08:29.643Z,5.80
2018-03-07T02:10:56.627Z,5.80
2018-03-07T02:13:23.651Z,5.90
2018-03-07T02:15:50.635Z,5.90
2018-03-07T02:18:18.595Z,5.90
2018-03-07T02:20:45.656Z,5.90
2018-03-07T02:23:12.635Z,5.90
2018-03-07T02:25:39.655Z,6.00
2018-03-07T02:28:07.378Z,6.00
2018-03-07T02:30:34.347Z,6.00
2018-03-07T02:33:01.372Z,6.10
2018-03-07T02:35:28.394Z,6.10
2018-03-07T02:37:56.198Z,6.10
2018-03-07T02:40:23.264Z,6.10
2018-03-07T02:42:50.246Z,6.10
2018-03-07T02:45:17.282Z,6.00
2018-03-07T02:47:44.243Z,6.00
2018-03-07T02:50:11.224Z,6.00
2018-03-07T02:52:38.191Z,6.00
2018-03-07T02:55:05.160Z,5.90
2018-03-07T02:57:32.998Z,5.90
2018-03-07T02:59:59.968Z,5.90
2018-03-07T03:02:27.006Z,5.90
2018-03-07T03:04:53.975Z,5.90
2018-03-07T03:07:20.959Z,5.80
2018-03-07T03:09:47.928Z,5.80
2018-03-07T03:12:14.943Z,5.70
2018-03-07T03:14:42.003Z,5.60
2018-03-07T03:17:08.974Z,5.50
2018-03-07T03:19:36.021Z,5.40
2018-03-07T03:22:03.076Z,5.30
2018-03-07T03:24:30.138Z,5.30
2018-03-07T03:26:57.111Z,5.20
2018-03-07T03:29:24.160Z,5.10
2018-03-07T03:31:51.220Z,5.10
2018-03-07T03:34:18.195Z,5.10
2018-03-07T03:36:45.167Z,5.00
2018-03-07T03:39:12.140Z,4.90
2018-03-07T03:41:39.111Z,4.80
2018-03-07T03:44:06.928Z,4.60
2018-03-07T03:46:33.896Z,4.60
2018-03-07T03:49:00.883Z,4.50
2018-03-07T03:51:27.849Z,4.50
2018-03-07T03:53:54.868Z,4.50
2018-03-07T03:56:21.843Z,4.40
2018-03-07T03:58:48.810Z,4.40
2018-03-07T04:01:15.793Z,4.40
2018-03-07T04:03:43.535Z,4.30
2018-03-07T04:06:10.580Z,4.20
2018-03-07T04:08:37.547Z,4.20
2018-03-07T04:13:37.307Z,4.10
2018-03-07T04:16:04.287Z,4.10
2018-03-07T04:18:32.251Z,4.00
2018-03-07T04:20:59.246Z,4.00
2018-03-07T04:23:26.984Z,3.90
2018-03-07T04:25:53.951Z,3.90
2018-03-07T04:28:21.830Z,3.80
2018-03-07T04:30:48.808Z,3.80
2018-03-07T04:33:16.552Z,3.70
2018-03-07T04:35:43.523Z,3.70
2018-03-07T04:38:10.503Z,3.70
2018-03-07T04:40:38.240Z,3.60
2018-03-07T04:43:05.283Z,3.60
2018-03-07T04:45:32.248Z,3.60
2018-03-07T04:47:59.304Z,3.60
2018-03-07T04:50:26.272Z,3.50
2018-03-07T04:52:53.247Z,3.50
2018-03-07T04:55:20.286Z,3.50
2018-03-07T04:57:47.267Z,3.40
2018-03-07T05:00:14.303Z,3.40
2018-03-07T05:02:41.322Z,3.40
2018-03-07T05:05:08.251Z,3.30
2018-03-07T05:07:35.223Z,3.30
2018-03-07T05:10:02.963Z,3.20
2018-03-07T05:12:29.936Z,3.20
2018-03-07T05:14:56.906Z,3.20
2018-03-07T05:17:23.870Z,3.20
2018-03-07T05:19:51.703Z,3.10
2018-03-07T05:22:18.667Z,3.10
2018-03-07T05:24:45.650Z,3.10
2018-03-07T05:27:14.127Z,3.10
2018-03-07T05:29:41.103Z,3.10
2018-03-07T05:32:08.848Z,3.00
2018-03-07T05:34:35.829Z,3.00
2018-03-07T05:37:02.863Z,3.00
2018-03-07T05:39:29.923Z,3.00
2018-03-07T05:41:56.981Z,3.00
2018-03-07T05:44:24.043Z,3.10
2018-03-07T05:46:51.019Z,3.10
2018-03-07T05:49:17.983Z,3.10
2018-03-07T05:51:45.021Z,3.20
2018-03-07T05:54:11.991Z,3.20
2018-03-07T05:56:38.971Z,3.30
2018-03-07T05:59:05.943Z,3.30
2018-03-07T06:01:33.768Z,3.30
2018-03-07T06:04:00.735Z,3.30
2018-03-07T06:06:27.711Z,3.40
2018-03-07T06:08:54.747Z,3.40
2018-03-07T06:11:21.807Z,3.40
2018-03-07T06:13:48.779Z,3.50
2018-03-07T06:16:15.747Z,3.50
2018-03-07T06:18:42.733Z,3.50
2018-03-07T06:21:09.702Z,3.50
2018-03-07T06:23:37.439Z,3.60
2018-03-07T06:26:04.416Z,3.60
2018-03-07T06:28:31.391Z,3.70
2018-03-07T06:30:59.123Z,3.80
2018-03-07T06:33:26.101Z,3.80
2018-03-07T06:35:53.127Z,3.90
2018-03-07T06:38:20.099Z,3.90
2018-03-07T06:40:47.071Z,4.00
2018-03-07T06:43:14.067Z,4.00
2018-03-07T06:45:41.884Z,4.10
2018-03-07T06:48:08.943Z,4.10
2018-03-07T06:50:35.916Z,4.10
2018-03-07T06:53:02.890Z,4.20
2018-03-07T06:55:29.869Z,4.20
2018-03-07T06:57:56.838Z,4.30
2018-03-07T07:00:24.572Z,4.30
2018-03-07T07:02:51.546Z,4.40
2018-03-07T07:05:18.566Z,4.40
2018-03-07T07:07:45.547Z,4.50
2018-03-07T07:10:12.597Z,4.50
2018-03-07T07:12:39.731Z,4.60
2018-03-07T07:15:07.443Z,4.70
2018-03-07T07:17:34.421Z,4.70
2018-03-07T07:20:01.400Z,4.70
2018-03-07T07:22:29.223Z,4.80
2018-03-07T07:24:56.195Z,4.80
2018-03-07T07:27:23.288Z,4.90
2018-03-07T07:29:50.215Z,4.90
2018-03-07T07:32:17.260Z,5.00
2018-03-07T07:34:44.231Z,5.00
2018-03-07T07:37:11.205Z,5.00
2018-03-07T07:39:38.175Z,5.00
2018-03-07T07:42:06.003Z,5.10
2018-03-07T07:44:33.071Z,5.10
2018-03-07T07:47:00.048Z,5.10
2018-03-07T07:49:27.030Z,5.20
2018-03-07T07:51:54.000Z,5.20
2018-03-07T07:54:21.819Z,5.20
2018-03-07T07:56:48.787Z,5.20
2018-03-07T07:59:15.843Z,5.20
2018-03-07T08:01:42.904Z,5.20
2018-03-07T08:04:09.889Z,5.20
2018-03-07T08:06:36.919Z,5.30
2018-03-07T08:09:03.976Z,5.30
2018-03-07T08:11:30.948Z,5.30
2018-03-07T08:13:57.928Z,5.30
2018-03-07T08:16:25.664Z,5.30
2018-03-07T08:18:52.727Z,5.30
2018-03-07T08:21:19.699Z,5.30
2018-03-07T08:23:46.672Z,5.40
2018-03-07T08:26:13.712Z,5.40
2018-03-07T08:28:40.690Z,5.50
2018-03-07T08:31:07.663Z,5.50
2018-03-07T08:33:34.702Z,5.50
2018-03-07T08:36:01.663Z,5.50
2018-03-07T08:38:28.699Z,5.60
2018-03-07T08:40:55.672Z,5.60
2018-03-07T08:43:22.723Z,5.70
2018-03-07T08:45:49.690Z,5.80
2018-03-07T08:48:19.199Z,5.90
2018-03-07T08:50:46.263Z,5.90
2018-03-07T08:53:13.239Z,6.00
2018-03-07T08:55:40.280Z,6.00
2018-03-07T08:58:07.260Z,6.10
2018-03-07T09:00:34.278Z,6.20
2018-03-07T09:03:01.207Z,6.30
2018-03-07T09:05:28.952Z,6.30
2018-03-07T09:07:55.916Z,6.30
2018-03-07T09:10:22.900Z,6.40
2018-03-07T09:12:50.716Z,6.50
2018-03-07T09:15:17.779Z,6.40
2018-03-07T09:17:44.748Z,6.50
2018-03-07T09:20:12.835Z,6.60
2018-03-07T09:22:39.812Z,6.60
2018-03-07T09:25:06.778Z,6.70
2018-03-07T09:27:33.747Z,6.80
2018-03-07T09:30:01.496Z,7.00
2018-03-07T09:32:28.537Z,7.00
2018-03-07T09:34:55.596Z,7.10
2018-03-07T09:37:22.563Z,7.20
2018-03-07T09:39:49.619Z,7.30
2018-03-07T09:42:16.671Z,7.40
2018-03-07T09:44:43.643Z,7.50
2018-03-07T09:47:10.691Z,7.60
2018-03-07T09:49:37.755Z,7.60
2018-03-07T09:52:04.724Z,7.70
2018-03-07T09:54:31.707Z,7.80
2018-03-07T09:56:58.672Z,7.80
2018-03-07T09:59:27.231Z,7.90
2018-03-07T10:01:54.295Z,7.90
2018-03-07T10:04:21.344Z,7.90
2018-03-07T10:06:48.307Z,8.00
2018-03-07T10:09:15.363Z,8.00
2018-03-07T10:11:42.427Z,8.10
2018-03-07T10:14:09.482Z,8.10
2018-03-07T10:16:36.513Z,8.20
2018-03-07T10:19:03.500Z,8.20
2018-03-07T10:21:30.559Z,8.30
2018-03-07T10:23:57.539Z,8.40
2018-03-07T10:26:24.504Z,8.40
2018-03-07T10:28:51.484Z,8.40
2018-03-07T10:31:19.219Z,8.30
2018-03-07T10:33:46.275Z,8.30
2018-03-07T10:36:13.249Z,8.40
2018-03-07T10:38:40.223Z,8.40
2018-03-07T10:41:07.203Z,8.50
2018-03-07T10:43:34.947Z,8.80
2018-03-07T10:46:01.921Z,8.80
2018-03-07T10:48:30.396Z,9.00
2018-03-07T10:50:57.430Z,9.00
2018-03-07T10:53:24.407Z,9.10
2018-03-07T10:55:51.464Z,9.20
2018-03-07T10:58:18.531Z,9.20
2018-03-07T11:00:45.512Z,9.20
2018-03-07T11:03:12.481Z,9.30
2018-03-07T11:05:39.496Z,9.30
2018-03-07T11:08:06.651Z,9.30
2018-03-07T11:10:33.628Z,9.40
2018-03-07T11:13:00.686Z,9.40
2018-03-07T11:15:27.727Z,9.40
2018-03-07T11:17:54.695Z,9.40
2018-03-07T11:20:21.751Z,9.50
2018-03-07T11:22:48.807Z,9.40
2018-03-07T11:25:15.783Z,9.40
2018-03-07T11:27:46.680Z,9.40
2018-03-07T11:30:14.416Z,9.30
2018-03-07T11:32:41.391Z,9.30
2018-03-07T11:35:10.558Z,9.30
2018-03-07T11:37:37.543Z,9.30
2018-03-07T11:40:04.528Z,9.20
2018-03-07T11:42:32.355Z,9.30
2018-03-07T11:44:59.448Z,9.30
2018-03-07T11:47:26.388Z,9.30
2018-03-07T11:49:53.430Z,9.30
2018-03-07T11:52:20.499Z,9.40
2018-03-07T11:54:47.579Z,9.40
2018-03-07T11:57:14.563Z,9.40
2018-03-07T11:59:41.539Z,9.40
2018-03-07T12:02:09.370Z,9.40
2018-03-07T12:04:36.412Z,9.40
2018-03-07T12:07:03.383Z,9.40
2018-03-07T12:09:30.359Z,9.40
2018-03-07T12:11:57.588Z,9.50
2018-03-07T12:14:24.563Z,9.60
2018-03-07T12:16:51.536Z,9.70
2018-03-07T12:19:18.502Z,9.80
2018-03-07T12:21:45.528Z,9.90
2018-03-07T12:24:12.507Z,10.10
2018-03-07T12:26:39.479Z,10.20
2018-03-07T12:29:08.044Z,10.50
2018-03-07T12:31:35.101Z,10.50
2018-03-07T12:34:02.076Z,10.60
2018-03-07T12:36:29.130Z,10.70
2018-03-07T12:38:56.571Z,10.80
2018-03-07T12:41:24.069Z,10.80
2018-03-07T12:43:51.077Z,10.80
2018-03-07T12:46:19.268Z,10.60
2018-03-07T12:48:47.004Z,10.60
2018-03-07T12:51:14.196Z,10.60
2018-03-07T12:53:41.939Z,10.40
2018-03-07T12:56:08.919Z,10.40
2018-03-07T12:58:35.890Z,10.30
2018-03-07T13:01:03.642Z,10.40
2018-03-07T13:03:30.676Z,10.40
2018-03-07T13:05:57.740Z,10.40
2018-03-07T13:08:24.711Z,10.30
2018-03-07T13:10:51.773Z,10.30
2018-03-07T13:13:18.815Z,10.20
2018-03-07T13:15:46.572Z,10.10
2018-03-07T13:18:15.327Z,10.00
2018-03-07T13:20:42.603Z,10.00
2018-03-07T13:23:09.676Z,10.00
2018-03-07T13:25:36.812Z,9.90
2018-03-07T13:28:03.783Z,9.90
2018-03-07T13:30:30.827Z,9.90
2018-03-07T13:32:57.800Z,9.90
2018-03-07T13:35:24.776Z,9.90
2018-03-07T13:37:51.807Z,9.90
2018-03-07T13:40:18.867Z,9.90
2018-03-07T13:42:45.936Z,9.90
2018-03-07T13:45:12.910Z,9.90
2018-03-07T13:47:39.948Z,9.90
2018-03-07T13:50:06.923Z,9.80
2018-03-07T13:52:33.912Z,9.90
2018-03-07T13:55:01.656Z,9.80
2018-03-07T13:57:28.947Z,9.90
2018-03-07T13:59:55.918Z,9.90
2018-03-07T14:02:23.661Z,11.50
2018-03-07T14:04:50.694Z,11.50
2018-03-07T14:07:17.760Z,13.80
2018-03-07T14:09:44.818Z,15.10
2018-03-07T14:12:12.573Z,15.00
2018-03-07T14:14:40.592Z,14.40
2018-03-07T14:17:07.581Z,13.70
2018-03-07T14:19:34.605Z,13.20
2018-03-07T14:22:01.659Z,12.80
2018-03-07T14:24:28.662Z,12.30
2018-03-07T14:26:55.620Z,11.90
2018-03-07T14:29:22.599Z,11.60
2018-03-07T14:31:49.569Z,11.40
2018-03-07T14:34:16.544Z,11.20
2018-03-07T14:36:43.528Z,11.10
2018-03-07T14:39:10.503Z,10.90
2018-03-07T14:41:37.667Z,10.90
2018-03-07T14:44:04.644Z,10.90
2018-03-07T14:46:32.400Z,11.40
2018-03-07T14:49:00.950Z,12.30
2018-03-07T14:51:27.937Z,12.30
2018-03-07T14:53:54.911Z,13.40
2018-03-07T14:56:21.932Z,14.10
2018-03-07T14:58:48.904Z,14.40
2018-03-07T15:01:15.880Z,14.20
2018-03-07T15:03:43.619Z,13.70
2018-03-07T15:06:10.602Z,13.60
2018-03-07T15:08:37.680Z,13.60
2018-03-07T15:11:04.699Z,13.30
2018-03-07T15:13:31.767Z,13.20
2018-03-07T15:15:58.751Z,13.30
2018-03-07T15:18:25.791Z,13.50
2018-03-07T15:20:52.770Z,13.40
2018-03-07T15:23:19.739Z,13.10
2018-03-07T15:25:46.760Z,12.70
2018-03-07T15:28:13.740Z,12.40
2018-03-07T15:30:40.791Z,12.10
2018-03-07T15:33:07.840Z,11.80
2018-03-07T15:35:34.900Z,11.60
2018-03-07T15:38:01.961Z,11.40
2018-03-07T15:40:28.984Z,11.30
2018-03-07T15:42:56.025Z,11.10
2018-03-07T15:45:23.771Z,10.90
2018-03-07T15:47:50.802Z,10.90
2018-03-07T15:50:17.780Z,10.80
2018-03-07T15:52:44.768Z,10.80
2018-03-07T15:55:11.752Z,10.80
2018-03-07T15:57:39.568Z,10.70
2018-03-07T16:00:06.559Z,10.70
2018-03-07T16:02:33.584Z,10.60
2018-03-07T16:05:00.568Z,10.40
2018-03-07T16:07:27.549Z,10.40
2018-03-07T16:09:54.568Z,10.30
2018-03-07T16:12:21.623Z,10.20
2018-03-07T16:14:48.660Z,10.20
2018-03-07T16:17:15.775Z,10.10
2018-03-07T16:19:42.743Z,10.00
2018-03-07T16:22:11.232Z,9.60
2018-03-07T16:24:38.203Z,9.60
2018-03-07T16:27:05.944Z,9.30
2018-03-07T16:29:32.983Z,9.30
2018-03-07T16:31:59.964Z,9.20
2018-03-07T16:34:26.932Z,9.10
2018-03-07T16:36:53.963Z,9.00
2018-03-07T16:39:21.020Z,8.80
2018-03-07T16:41:47.995Z,8.70
2018-03-07T16:44:15.044Z,8.60
2018-03-07T16:46:42.023Z,8.60
2018-03-07T16:49:08.988Z,8.50
2018-03-07T16:51:35.984Z,8.50
2018-03-07T16:54:03.719Z,8.40
2018-03-07T16:56:30.769Z,8.40
2018-03-07T16:58:57.812Z,8.40
2018-03-07T17:01:24.786Z,8.40
2018-03-07T17:03:51.759Z,8.40
2018-03-07T17:06:18.730Z,8.30
2018-03-07T17:08:45.748Z,8.30
2018-03-07T17:11:12.719Z,8.30
2018-03-07T17:13:39.695Z,8.30
2018-03-07T17:16:06.822Z,8.30
2018-03-07T17:18:33.792Z,8.30
2018-03-07T17:21:00.841Z,8.30
2018-03-07T17:23:27.902Z,8.30
2018-03-07T17:25:54.883Z,8.30
2018-03-07T17:28:22.846Z,8.20
2018-03-07T17:30:49.820Z,8.20
2018-03-07T17:33:16.791Z,8.20
2018-03-07T17:35:43.819Z,8.20
2018-03-07T17:38:10.879Z,8.20
2018-03-07T17:40:37.855Z,8.20
2018-03-07T17:43:04.832Z,8.20
2018-03-07T17:45:31.808Z,8.20
2018-03-07T17:47:59.636Z,8.20
2018-03-07T17:50:26.665Z,8.20
2018-03-07T17:52:53.635Z,8.20
2018-03-07T17:55:20.619Z,8.20
2018-03-07T17:57:47.592Z,8.20
2018-03-07T18:00:14.630Z,8.20
2018-03-07T18:02:41.603Z,8.20
2018-03-07T18:05:08.580Z,8.20
2018-03-07T18:07:35.547Z,8.20
2018-03-07T18:10:03.291Z,8.20
2018-03-07T18:12:30.339Z,8.20
2018-03-07T18:14:57.311Z,8.20
2018-03-07T18:17:24.438Z,8.20
2018-03-07T18:19:52.250Z,8.20
2018-03-07T18:22:19.699Z,8.20
2018-03-07T18:24:46.667Z,8.20
2018-03-07T18:27:13.648Z,8.20
2018-03-07T18:29:40.684Z,8.10
2018-03-07T18:32:07.772Z,8.10
2018-03-07T18:34:34.838Z,8.10
2018-03-07T18:37:01.775Z,8.10
2018-03-07T18:39:28.747Z,8.10
2018-03-07T18:41:55.735Z,8.10
2018-03-07T18:44:23.475Z,8.10
2018-03-07T18:46:50.511Z,8.00
2018-03-07T18:49:17.488Z,8.00
2018-03-07T18:51:44.454Z,8.00
2018-03-07T18:54:11.431Z,8.10
2018-03-07T18:56:38.447Z,8.10
2018-03-07T18:59:05.430Z,8.10
2018-03-07T19:01:32.464Z,8.10
2018-03-07T19:03:59.435Z,8.10
2018-03-07T19:06:26.411Z,8.10
2018-03-07T19:08:53.438Z,8.00
2018-03-07T19:11:20.406Z,8.00
2018-03-07T19:13:49.335Z,8.00
2018-03-07T19:16:17.096Z,8.00
2018-03-07T19:18:44.071Z,8.00
2018-03-07T19:21:11.809Z,8.00
2018-03-07T19:23:38.787Z,7.90
2018-03-07T19:26:05.759Z,8.00
2018-03-07T19:28:34.101Z,7.90
2018-03-07T19:31:01.050Z,7.90
2018-03-07T19:33:28.022Z,7.90
2018-03-07T19:35:55.104Z,7.80
2018-03-07T19:38:22.080Z,7.80
2018-03-07T19:40:49.068Z,7.80
2018-03-07T19:43:16.029Z,7.80
2018-03-07T19:45:44.259Z,7.80
2018-03-07T19:48:11.319Z,7.70
2018-03-07T19:50:38.382Z,7.70
2018-03-07T19:53:05.358Z,7.70
2018-03-07T19:55:32.382Z,7.70
2018-03-07T19:57:59.404Z,7.70
2018-03-07T20:00:26.414Z,7.70
2018-03-07T20:02:53.388Z,7.70
2018-03-07T20:05:20.431Z,7.70
2018-03-07T20:07:47.407Z,7.70
2018-03-07T20:10:14.376Z,7.70
2018-03-07T20:12:41.346Z,7.70
2018-03-07T20:15:08.318Z,7.70
2018-03-07T20:17:36.148Z,7.70
2018-03-07T20:20:03.199Z,7.70
2018-03-07T20:22:30.179Z,7.70
2018-03-07T20:24:57.143Z,7.70
2018-03-07T20:27:24.120Z,7.70
2018-03-07T20:29:52.071Z,7.60
2018-03-07T20:32:19.123Z,7.60
2018-03-07T20:34:46.098Z,7.60
2018-03-07T20:37:13.075Z,7.60
2018-03-07T20:39:40.044Z,7.70
2018-03-07T20:42:07.804Z,7.60
2018-03-07T20:44:35.556Z,7.60
2018-03-07T20:47:02.536Z,7.60
2018-03-07T20:49:29.511Z,7.60
2018-03-07T20:51:56.527Z,7.60
2018-03-07T20:54:23.588Z,7.60
2018-03-07T20:56:50.563Z,7.60
2018-03-07T20:59:17.547Z,7.60
2018-03-07T21:01:44.525Z,7.60
2018-03-07T21:04:12.260Z,7.60
2018-03-07T21:06:39.239Z,7.50
2018-03-07T21:09:06.207Z,7.50
2018-03-07T21:11:34.030Z,7.50
2018-03-07T21:14:01.008Z,7.50
2018-03-07T21:16:27.987Z,7.50
2018-03-07T21:18:55.007Z,7.50
2018-03-07T21:21:22.071Z,7.50
2018-03-07T21:23:49.150Z,7.50
2018-03-07T21:26:16.147Z,7.50
2018-03-07T21:28:44.091Z,7.40
2018-03-07T21:31:11.123Z,7.40
2018-03-07T21:33:38.091Z,7.40
2018-03-07T21:36:05.064Z,7.40
2018-03-07T21:38:32.960Z,7.40
2018-03-07T21:40:59.983Z,7.40
2018-03-07T21:43:26.963Z,7.40
2018-03-07T21:45:53.930Z,7.40
2018-03-07T21:48:20.907Z,7.40
2018-03-07T21:50:47.879Z,7.40
2018-03-07T21:53:15.740Z,7.40
2018-03-07T21:55:42.655Z,7.40
2018-03-07T21:58:09.635Z,7.40
2018-03-07T22:00:36.672Z,7.40
2018-03-07T22:03:03.736Z,7.40
2018-03-07T22:05:30.694Z,7.40
2018-03-07T22:07:57.675Z,7.40
2018-03-07T22:10:24.649Z,7.40
2018-03-07T22:12:51.658Z,7.40
2018-03-07T22:15:18.631Z,7.40
2018-03-07T22:17:45.616Z,7.30
2018-03-07T22:20:12.646Z,7.30
2018-03-07T22:22:39.703Z,7.30
2018-03-07T22:25:06.779Z,7.30
2018-03-07T22:27:33.755Z,7.20
2018-03-07T22:30:00.729Z,7.20
2018-03-07T22:32:28.559Z,7.10
2018-03-07T22:34:55.526Z,7.20
2018-03-07T22:37:22.507Z,7.10
2018-03-07T22:39:49.527Z,7.10
2018-03-07T22:42:16.503Z,7.00
2018-03-07T22:44:43.475Z,7.00
2018-03-07T22:47:10.512Z,7.00
2018-03-07T22:49:37.479Z,7.00
2018-03-07T22:52:04.522Z,6.90
2018-03-07T22:54:31.495Z,6.90
2018-03-07T22:56:58.538Z,6.90
2018-03-07T22:59:25.511Z,6.90
2018-03-07T23:01:52.487Z,6.90
2018-03-07T23:04:19.524Z,6.80
2018-03-07T23:06:46.579Z,6.80
2018-03-07T23:09:13.647Z,6.80
2018-03-07T23:11:40.626Z,6.80
2018-03-07T23:14:07.587Z,6.80
2018-03-07T23:16:34.635Z,6.80
2018-03-07T23:19:01.613Z,6.70
2018-03-07T23:21:28.637Z,6.70
2018-03-07T23:23:55.615Z,6.70
2018-03-07T23:26:22.582Z,6.70
2018-03-07T23:28:50.462Z,6.60
2018-03-07T23:31:17.428Z,6.70
2018-03-07T23:33:45.927Z,6.70
2018-03-07T23:36:12.875Z,6.70
2018-03-07T23:38:39.847Z,6.70
2018-03-07T23:41:07.587Z,6.70
2018-03-07T23:43:34.563Z,6.70
2018-03-07T23:46:01.603Z,6.70
2018-03-07T23:48:29.514Z,6.70
2018-03-07T23:50:56.468Z,6.70
2018-03-07T23:53:23.489Z,6.70
2018-03-07T23:55:50.459Z,6.70
2018-03-07T23:58:18.354Z,6.70
